Time;durP1;ratioP1;P1;durP2;ratioP2;P2;SDS_P1;SDS_P2;PMS_P1;PMS_P2;Temp;Humidity;BMP_temperature;BMP_pressure;BME280_temperature;BME280_humidity;BME280_pressure;Samples;Min_cycle;Max_cycle;Signal;HPM_P1;HPM_P2
2023/12/14 00:00:19;;;;;;;11.10;6.35;;;5.20;95.90;;;;;;5058586;28;20036;-81
2023/12/14 00:06:27;;;;;;;9.45;5.93;;;5.30;96.00;;;;;;5073528;28;20023;-79
2023/12/14 00:08:53;;;;;;;11.57;6.47;;;5.20;95.80;;;;;;5041909;28;20037;-79
2023/12/14 00:11:19;;;;;;;10.02;5.82;;;5.20;95.70;;;;;;5058365;28;20039;-79
2023/12/14 00:13:44;;;;;;;10.90;5.57;;;5.20;95.80;;;;;;5058316;28;20036;-81
2023/12/14 00:16:10;;;;;;;12.15;5.97;;;5.20;95.80;;;;;;5058515;28;20097;-79
2023/12/14 00:18:37;;;;;;;11.40;6.50;;;5.20;95.60;;;;;;5058370;28;20408;-79
2023/12/14 00:21:03;;;;;;;16.58;8.02;;;5.10;95.70;;;;;;5074818;28;20044;-81
2023/12/14 00:23:29;;;;;;;13.88;7.22;;;5.20;95.70;;;;;;5075110;28;20404;-79
2023/12/14 00:25:54;;;;;;;10.07;7.05;;;5.20;95.60;;;;;;5040953;28;20043;-80
2023/12/14 00:28:20;;;;;;;13.73;7.05;;;5.10;95.30;;;;;;5042170;28;20129;-78
2023/12/14 00:30:46;;;;;;;11.32;6.75;;;5.10;95.50;;;;;;5058109;28;20037;-80
2023/12/14 00:33:11;;;;;;;9.02;6.18;;;5.10;95.60;;;;;;5058032;28;20040;-80
2023/12/14 00:35:37;;;;;;;10.35;6.30;;;5.20;95.60;;;;;;5041440;28;20043;-83
2023/12/14 00:38:03;;;;;;;12.73;6.45;;;5.10;95.60;;;;;;5057880;28;20041;-80
2023/12/14 00:40:28;;;;;;;10.23;5.90;;;5.10;95.60;;;;;;5056737;28;20052;-80
2023/12/14 01:01:18;;;;;;;10.23;5.63;;;5.10;94.70;;;;;;5055413;28;20099;-78
2023/12/14 01:03:43;;;;;;;11.52;6.72;;;5.00;94.60;;;;;;5050369;28;20036;-79
2023/12/14 01:06:09;;;;;;;11.25;6.20;;;5.00;94.60;;;;;;5057572;28;20111;-80
2023/12/14 01:08:35;;;;;;;12.73;6.25;;;5.10;94.60;;;;;;5056568;28;20047;-80
2023/12/14 01:11:00;;;;;;;8.80;6.63;;;5.00;94.50;;;;;;5074221;28;20098;-79
2023/12/14 01:13:26;;;;;;;9.48;6.53;;;5.00;94.40;;;;;;5057594;28;20044;-81
2023/12/14 01:15:52;;;;;;;13.63;7.47;;;5.00;94.60;;;;;;5074102;28;20488;-79
2023/12/14 01:18:17;;;;;;;11.85;6.47;;;5.00;94.50;;;;;;5073824;28;20481;-78
2023/12/14 01:20:43;;;;;;;8.70;5.78;;;5.10;94.60;;;;;;5050208;28;20041;-79
2023/12/14 01:23:11;;;;;;;9.15;5.43;;;5.10;94.70;;;;;;5053903;28;20033;-80
2023/12/14 01:25:37;;;;;;;10.45;7.20;;;5.00;94.50;;;;;;5037010;28;20500;-79
2023/12/14 01:28:03;;;;;;;9.18;6.35;;;5.00;94.10;;;;;;5053806;28;20041;-79
2023/12/14 01:30:28;;;;;;;9.15;6.28;;;5.00;94.30;;;;;;5054228;28;20496;-79
2023/12/14 01:32:54;;;;;;;7.18;6.15;;;5.00;94.30;;;;;;5053579;28;20465;-83
2023/12/14 01:35:20;;;;;;;7.15;5.90;;;5.00;94.50;;;;;;5036943;28;20037;-80
2023/12/14 01:37:45;;;;;;;9.38;6.75;;;5.00;94.10;;;;;;5053596;28;20098;-81
2023/12/14 01:40:11;;;;;;;9.05;6.85;;;5.00;94.20;;;;;;5069787;28;20207;-80
2023/12/14 01:42:37;;;;;;;10.02;6.85;;;5.00;94.20;;;;;;5036989;28;20143;-79
2023/12/14 01:45:04;;;;;;;9.20;6.93;;;4.90;94.30;;;;;;5053493;28;20079;-81
2023/12/14 01:47:30;;;;;;;9.88;6.65;;;4.90;94.30;;;;;;5079542;28;20408;-78
2023/12/14 01:49:55;;;;;;;11.57;7.00;;;5.00;94.60;;;;;;5056908;28;20040;-80
2023/12/14 01:52:21;;;;;;;11.63;6.97;;;4.90;94.40;;;;;;5040020;28;20127;-82
2023/12/14 01:54:47;;;;;;;11.40;7.22;;;4.90;94.30;;;;;;5036331;28;20040;-79
2023/12/14 01:57:12;;;;;;;11.48;7.10;;;4.90;94.20;;;;;;5033444;28;20075;-82
2023/12/14 01:59:38;;;;;;;8.80;6.75;;;4.90;94.30;;;;;;5019911;28;20041;-78
2023/12/14 02:02:05;;;;;;;10.15;7.40;;;4.90;94.30;;;;;;5069642;28;20110;-80
2023/12/14 02:04:31;;;;;;;10.25;7.63;;;4.90;94.00;;;;;;5081235;28;20090;-80
2023/12/14 02:06:57;;;;;;;9.48;6.40;;;4.90;94.10;;;;;;5056046;28;20032;-81
2023/12/14 02:09:22;;;;;;;10.15;6.82;;;4.90;94.40;;;;;;5072860;28;20036;-81
2023/12/14 02:11:48;;;;;;;11.52;7.45;;;5.00;94.40;;;;;;5056133;28;20051;-80
2023/12/14 02:14:14;;;;;;;10.45;7.55;;;5.00;94.30;;;;;;5056395;28;20040;-82
2023/12/14 02:16:39;;;;;;;10.43;7.65;;;4.90;93.90;;;;;;5022936;28;20041;-80
2023/12/14 02:19:05;;;;;;;10.50;8.27;;;4.90;93.90;;;;;;5072849;28;20044;-80
2023/12/14 02:21:31;;;;;;;14.25;8.77;;;4.90;94.00;;;;;;5065514;28;20044;-80
2023/12/14 02:23:57;;;;;;;12.25;8.20;;;4.90;94.00;;;;;;5019569;28;20452;-80
2023/12/14 02:26:22;;;;;;;12.18;7.78;;;4.90;94.10;;;;;;5019532;28;20033;-81
2023/12/14 02:28:48;;;;;;;10.25;8.00;;;4.90;94.00;;;;;;5071479;28;20040;-80
2023/12/14 02:31:14;;;;;;;11.48;8.02;;;4.90;94.00;;;;;;5056257;28;20040;-80
2023/12/14 02:33:39;;;;;;;12.80;8.50;;;4.90;93.80;;;;;;5056114;28;20037;-81
2023/12/14 02:36:06;;;;;;;13.30;8.57;;;4.90;94.00;;;;;;5039352;28;20372;-81
2023/12/14 02:38:31;;;;;;;12.75;8.48;;;4.90;94.10;;;;;;5055688;28;20037;-80
2023/12/14 02:40:57;;;;;;;10.80;8.93;;;5.00;94.20;;;;;;5051792;28;20139;-81
2023/12/14 02:43:23;;;;;;;15.77;9.68;;;5.00;94.20;;;;;;5069019;28;20408;-82
2023/12/14 02:45:49;;;;;;;16.48;8.32;;;5.00;94.40;;;;;;5052195;28;20075;-81
2023/12/14 02:48:15;;;;;;;14.35;9.00;;;5.00;94.20;;;;;;5068942;28;20385;-81
2023/12/14 02:50:40;;;;;;;16.42;9.45;;;4.90;94.20;;;;;;5052213;28;20115;-81
2023/12/14 02:53:06;;;;;;;11.80;8.52;;;5.00;94.30;;;;;;5052359;28;20041;-80
2023/12/14 02:55:32;;;;;;;15.63;11.07;;;5.00;94.40;;;;;;5078756;28;20552;-83
2023/12/14 02:57:58;;;;;;;13.65;9.75;;;5.00;94.40;;;;;;5055244;28;20044;-80
2023/12/14 03:00:23;;;;;;;17.10;9.63;;;5.00;94.30;;;;;;5022173;28;20404;-79
2023/12/14 03:02:49;;;;;;;12.07;8.80;;;5.00;94.30;;;;;;5055469;28;20085;-82
2023/12/14 03:05:15;;;;;;;10.98;8.73;;;5.00;94.40;;;;;;5054654;28;20032;-81
2023/12/14 03:07:40;;;;;;;16.15;9.82;;;5.00;94.50;;;;;;5055397;28;20040;-80
2023/12/14 03:10:07;;;;;;;10.82;8.25;;;5.00;94.50;;;;;;5056426;28;20040;-80
2023/12/14 03:12:33;;;;;;;16.13;9.73;;;5.00;94.50;;;;;;5063371;28;20044;-79
2023/12/14 03:14:58;;;;;;;12.65;9.13;;;5.00;94.60;;;;;;5075585;28;20442;-80
2023/12/14 03:17:24;;;;;;;14.82;9.45;;;5.00;94.50;;;;;;5092553;28;20075;-81
2023/12/14 03:19:50;;;;;;;13.98;9.07;;;5.00;94.50;;;;;;5075371;28;20507;-81
2023/12/14 03:22:15;;;;;;;11.52;8.23;;;5.00;94.50;;;;;;5081090;28;20041;-81
2023/12/14 03:24:42;;;;;;;12.68;8.60;;;5.00;94.60;;;;;;5019235;28;20100;-81
2023/12/14 03:27:07;;;;;;;13.80;9.25;;;5.00;94.50;;;;;;5068545;28;20068;-80
2023/12/14 03:29:33;;;;;;;12.80;8.45;;;5.00;94.50;;;;;;5035551;28;20080;-81
2023/12/14 03:31:59;;;;;;;11.98;8.40;;;5.00;94.60;;;;;;5035739;28;20404;-80
2023/12/14 03:34:25;;;;;;;12.82;8.88;;;5.00;94.60;;;;;;5041437;28;20041;-80
2023/12/14 03:36:51;;;;;;;14.40;8.10;;;5.00;94.60;;;;;;5059255;28;20048;-82
2023/12/14 03:39:16;;;;;;;15.80;9.00;;;5.00;94.50;;;;;;5065053;28;20501;-80
2023/12/14 03:41:43;;;;;;;14.52;8.70;;;5.00;94.50;;;;;;5022801;28;20447;-83
2023/12/14 03:44:09;;;;;;;15.23;8.45;;;5.00;94.60;;;;;;5089198;28;20043;-80
2023/12/14 03:46:34;;;;;;;12.13;8.57;;;5.00;94.60;;;;;;5055763;28;20115;-80
2023/12/14 03:49:01;;;;;;;15.90;8.60;;;5.00;94.50;;;;;;5055789;28;20033;-80
2023/12/14 03:51:26;;;;;;;14.07;8.95;;;5.00;94.60;;;;;;5055746;28;20078;-80
2023/12/14 03:53:52;;;;;;;18.83;8.93;;;5.00;94.60;;;;;;5109896;28;20040;-81
2023/12/14 03:56:18;;;;;;;15.65;7.53;;;5.00;94.70;;;;;;5086635;28;20485;-80
2023/12/14 03:58:43;;;;;;;15.73;8.70;;;5.00;94.70;;;;;;5071587;28;20032;-79
2023/12/14 04:01:16;;;;;;;14.77;9.05;;;5.10;94.70;;;;;;5055242;28;20037;-80
2023/12/14 04:03:42;;;;;;;15.60;9.07;;;5.00;94.80;;;;;;5056622;28;20048;-78
2023/12/14 04:06:08;;;;;;;15.52;9.40;;;5.00;94.70;;;;;;5038678;28;20036;-80
2023/12/14 04:08:34;;;;;;;18.95;9.43;;;5.00;94.80;;;;;;5038877;28;20431;-79
2023/12/14 04:10:59;;;;;;;15.23;9.02;;;5.10;94.80;;;;;;5055396;28;20389;-79
2023/12/14 04:13:25;;;;;;;19.58;9.70;;;5.00;94.80;;;;;;5038712;28;20596;-80
2023/12/14 04:15:50;;;;;;;15.88;9.25;;;5.10;94.80;;;;;;5038944;28;20515;-80
2023/12/14 04:18:16;;;;;;;14.77;8.98;;;5.00;94.80;;;;;;5055016;28;20080;-80
2023/12/14 04:20:42;;;;;;;15.93;8.48;;;5.00;94.80;;;;;;5038277;28;20040;-79
2023/12/14 04:23:07;;;;;;;16.13;9.20;;;5.00;94.80;;;;;;5039959;28;20045;-79
2023/12/14 04:25:33;;;;;;;14.05;8.52;;;5.00;94.90;;;;;;5041487;28;20530;-79
2023/12/14 04:27:59;;;;;;;19.83;8.88;;;5.00;94.90;;;;;;5041508;28;20048;-80
2023/12/14 04:30:24;;;;;;;16.63;9.10;;;5.10;94.90;;;;;;5041814;28;20044;-79
2023/12/14 04:32:50;;;;;;;16.95;9.35;;;5.00;94.90;;;;;;5058061;28;20052;-80
2023/12/14 04:35:16;;;;;;;17.20;9.27;;;5.10;94.90;;;;;;5058243;28;20055;-81
2023/12/14 04:37:41;;;;;;;16.70;9.35;;;5.10;94.90;;;;;;5058262;28;20045;-81
2023/12/14 04:40:08;;;;;;;13.02;8.43;;;5.00;94.80;;;;;;5057452;28;20489;-79
2023/12/14 04:42:34;;;;;;;20.13;9.38;;;5.10;94.80;;;;;;5057985;28;20043;-81
2023/12/14 04:45:00;;;;;;;15.75;9.45;;;5.00;94.70;;;;;;5056305;28;20040;-80
2023/12/14 04:47:25;;;;;;;15.40;8.85;;;5.00;94.70;;;;;;5108293;28;20037;-79
2023/12/14 04:49:51;;;;;;;17.90;9.25;;;5.00;94.70;;;;;;5057943;28;20123;-78
2023/12/14 04:52:17;;;;;;;17.35;8.98;;;5.00;94.70;;;;;;5057757;28;20036;-80
2023/12/14 04:54:42;;;;;;;14.10;8.95;;;5.00;94.70;;;;;;5074276;28;20094;-78
2023/12/14 04:57:08;;;;;;;14.63;8.45;;;5.00;94.70;;;;;;5056801;28;20146;-79
2023/12/14 04:59:34;;;;;;;20.90;9.90;;;5.00;94.70;;;;;;5057411;28;20052;-79
2023/12/14 05:01:59;;;;;;;18.52;9.73;;;5.00;94.70;;;;;;5057472;28;20037;-78
2023/12/14 05:04:25;;;;;;;14.68;9.02;;;5.00;94.70;;;;;;5057467;28;20041;-81
2023/12/14 05:06:50;;;;;;;18.63;8.88;;;5.00;94.80;;;;;;5057046;28;20033;-77
2023/12/14 05:09:16;;;;;;;15.18;8.63;;;5.00;94.70;;;;;;5057219;28;20048;-81
2023/12/14 05:11:42;;;;;;;19.55;9.73;;;5.00;94.80;;;;;;5057384;28;20194;-79
2023/12/14 05:14:08;;;;;;;15.93;10.07;;;5.00;94.80;;;;;;5057273;28;20527;-80
2023/12/14 05:16:34;;;;;;;13.98;9.23;;;5.00;94.80;;;;;;5057155;28;20044;-80
2023/12/14 05:19:00;;;;;;;16.42;9.95;;;5.00;94.90;;;;;;5057444;28;20048;-82
2023/12/14 05:21:25;;;;;;;16.58;10.10;;;5.00;94.90;;;;;;5057158;28;20068;-81
2023/12/14 05:23:51;;;;;;;17.15;8.77;;;5.00;94.90;;;;;;5057296;28;20084;-82
2023/12/14 05:26:17;;;;;;;16.60;9.70;;;5.00;94.80;;;;;;5027446;28;20477;-79
2023/12/14 05:28:42;;;;;;;17.27;9.48;;;5.00;94.80;;;;;;5085405;28;20047;-82
2023/12/14 05:31:08;;;;;;;19.40;9.90;;;5.00;94.80;;;;;;5077049;28;20051;-81
2023/12/14 05:33:38;;;;;;;17.10;9.20;;;5.00;94.80;;;;;;5093951;27;20040;-80
2023/12/14 05:36:08;;;;;;;15.57;8.27;;;5.00;94.80;;;;;;5076730;28;20050;-80
2023/12/14 05:38:34;;;;;;;14.15;9.43;;;5.00;94.80;;;;;;5061014;28;20047;-80
2023/12/14 05:41:00;;;;;;;15.70;8.27;;;5.00;94.80;;;;;;5075937;28;20451;-78
2023/12/14 05:43:25;;;;;;;13.65;8.73;;;5.00;94.80;;;;;;5076799;28;20048;-80
2023/12/14 05:45:51;;;;;;;14.98;8.35;;;5.00;94.80;;;;;;5062747;28;20064;-82
2023/12/14 05:48:17;;;;;;;15.85;8.48;;;5.00;94.80;;;;;;5070962;28;20036;-79
2023/12/14 05:50:42;;;;;;;18.70;9.63;;;5.00;94.90;;;;;;5046499;28;20040;-80
2023/12/14 05:53:08;;;;;;;19.27;10.00;;;5.00;94.90;;;;;;5082958;28;20042;-80
2023/12/14 05:55:34;;;;;;;17.85;9.13;;;5.00;94.80;;;;;;5069960;28;20071;-80
2023/12/14 05:58:00;;;;;;;18.52;9.30;;;5.00;94.80;;;;;;5056720;28;20628;-80
2023/12/14 06:00:26;;;;;;;20.10;10.38;;;5.00;94.80;;;;;;5072747;28;20123;-80
2023/12/14 06:02:51;;;;;;;16.67;9.30;;;5.00;94.70;;;;;;5039662;28;20036;-80
2023/12/14 06:05:17;;;;;;;18.85;10.25;;;5.00;94.70;;;;;;5039518;28;20079;-79
2023/12/14 06:07:43;;;;;;;20.10;9.88;;;5.00;94.70;;;;;;5024297;28;20040;-79
2023/12/14 06:10:10;;;;;;;15.48;8.77;;;5.00;94.70;;;;;;5072817;28;20476;-79
2023/12/14 06:12:36;;;;;;;14.85;9.15;;;5.00;94.70;;;;;;5056123;28;20036;-80
2023/12/14 06:15:01;;;;;;;14.45;9.27;;;5.00;94.70;;;;;;5060863;28;20044;-79
2023/12/14 06:17:27;;;;;;;14.70;9.15;;;5.00;94.80;;;;;;5092982;28;20051;-81
2023/12/14 06:19:53;;;;;;;15.98;10.55;;;5.00;94.80;;;;;;5059048;28;20041;-78
2023/12/14 06:22:19;;;;;;;18.02;9.90;;;5.00;94.80;;;;;;5039566;28;20028;-80
2023/12/14 06:24:45;;;;;;;20.75;10.13;;;5.00;94.80;;;;;;5055942;28;20037;-79
2023/12/14 06:27:11;;;;;;;15.18;8.38;;;5.00;94.80;;;;;;5056301;28;20122;-81
2023/12/14 06:29:36;;;;;;;13.20;9.02;;;5.00;94.80;;;;;;5056478;28;20044;-79
2023/12/14 06:32:02;;;;;;;15.93;8.77;;;5.00;94.70;;;;;;5055881;28;20040;-80
2023/12/14 06:34:28;;;;;;;17.92;8.43;;;5.00;94.80;;;;;;5073069;28;20040;-79
2023/12/14 06:36:53;;;;;;;19.15;9.40;;;5.00;94.80;;;;;;5039070;28;20396;-79
2023/12/14 06:39:19;;;;;;;18.50;9.55;;;5.00;94.80;;;;;;5038954;28;20040;-80
2023/12/14 06:41:45;;;;;;;15.70;9.38;;;5.00;94.80;;;;;;5054391;28;20052;-78
2023/12/14 06:44:10;;;;;;;15.95;9.65;;;5.00;94.80;;;;;;5092636;28;20128;-80
2023/12/14 06:46:36;;;;;;;15.70;9.05;;;5.00;94.80;;;;;;5075723;28;20036;-78
2023/12/14 06:49:02;;;;;;;18.50;9.15;;;4.90;94.90;;;;;;5075686;28;20036;-80
2023/12/14 06:51:27;;;;;;;16.15;8.98;;;4.90;94.90;;;;;;5092473;28;20075;-78
2023/12/14 06:53:53;;;;;;;17.08;9.43;;;4.90;94.90;;;;;;5093249;28;20036;-78
2023/12/14 06:56:19;;;;;;;20.88;10.70;;;4.90;94.90;;;;;;5060255;28;20492;-79
2023/12/14 06:58:45;;;;;;;18.88;9.13;;;5.00;94.90;;;;;;5045710;28;20039;-78
2023/12/14 07:01:15;;;;;;;16.25;8.70;;;4.90;94.90;;;;;;5059408;28;20412;-76
2023/12/14 07:03:43;;;;;;;18.13;9.38;;;4.90;94.90;;;;;;5072547;28;20105;-81
2023/12/14 07:06:15;;;;;;;20.85;9.65;;;4.90;94.90;;;;;;5079268;28;20040;-79
2023/12/14 07:08:41;;;;;;;20.23;9.60;;;4.90;95.00;;;;;;5055765;28;20045;-79
2023/12/14 07:11:11;;;;;;;16.50;9.00;;;4.90;95.00;;;;;;5055601;28;20397;-78
2023/12/14 07:13:37;;;;;;;19.50;10.05;;;4.90;95.00;;;;;;5055362;28;20127;-81
2023/12/14 07:16:08;;;;;;;20.45;9.15;;;5.00;95.00;;;;;;5055166;28;20111;-80
2023/12/14 07:18:35;;;;;;;15.50;8.63;;;4.90;95.10;;;;;;5072717;28;20419;-77
2023/12/14 07:21:02;;;;;;;16.27;10.10;;;4.90;95.00;;;;;;5055396;28;20040;-78
2023/12/14 07:23:27;;;;;;;16.63;9.43;;;4.90;95.00;;;;;;5055284;28;20051;-80
2023/12/14 07:25:53;;;;;;;16.73;10.05;;;4.90;95.00;;;;;;5067538;28;20047;-79
2023/12/14 07:28:19;;;;;;;15.27;8.70;;;4.90;95.10;;;;;;5076337;28;20374;-80
2023/12/14 07:30:46;;;;;;;18.08;9.23;;;4.90;95.10;;;;;;5055017;28;20072;-78
2023/12/14 07:33:12;;;;;;;14.88;9.00;;;4.90;95.00;;;;;;5055463;28;20444;-81
2023/12/14 07:35:38;;;;;;;14.75;9.55;;;4.90;95.00;;;;;;5038805;28;20032;-80
2023/12/14 07:38:03;;;;;;;18.33;9.68;;;4.90;95.00;;;;;;5039150;28;20036;-80
2023/12/14 07:40:29;;;;;;;18.48;11.30;;;4.90;95.00;;;;;;5038259;28;20055;-78
2023/12/14 07:42:55;;;;;;;17.25;11.15;;;4.90;95.00;;;;;;5071757;28;20044;-78
2023/12/14 07:45:21;;;;;;;20.38;11.75;;;4.90;95.00;;;;;;5071760;28;20043;-80
2023/12/14 07:47:46;;;;;;;18.02;10.95;;;5.00;95.00;;;;;;5055294;28;20039;-82
2023/12/14 07:50:12;;;;;;;16.25;10.60;;;5.00;95.00;;;;;;5055132;28;20040;-78
2023/12/14 07:52:38;;;;;;;17.70;10.65;;;5.00;95.00;;;;;;5071413;28;20046;-79
2023/12/14 07:55:05;;;;;;;17.60;10.88;;;4.90;94.90;;;;;;5071645;28;20040;-79
2023/12/14 07:57:31;;;;;;;17.15;9.65;;;5.00;95.00;;;;;;5054891;28;20048;-79
2023/12/14 07:59:57;;;;;;;17.90;9.75;;;4.90;94.90;;;;;;5071567;28;20349;-79
2023/12/14 08:02:23;;;;;;;17.25;10.07;;;5.00;94.90;;;;;;5055005;28;20036;-81
2023/12/14 08:04:48;;;;;;;17.65;9.07;;;5.00;95.00;;;;;;5086161;28;20039;-79
2023/12/14 08:07:14;;;;;;;18.70;10.02;;;5.00;95.00;;;;;;5073790;28;20098;-77
2023/12/14 08:09:40;;;;;;;17.30;9.73;;;5.00;95.00;;;;;;5055065;28;20040;-81
2023/12/14 08:12:06;;;;;;;15.38;8.95;;;5.00;95.00;;;;;;5055031;28;20040;-82
2023/12/14 08:14:37;;;;;;;14.55;9.35;;;5.00;95.00;;;;;;5071568;28;20071;-81
2023/12/14 08:17:03;;;;;;;15.93;9.27;;;5.00;95.00;;;;;;5055090;28;20041;-79
2023/12/14 08:19:29;;;;;;;16.95;9.85;;;5.10;95.00;;;;;;5057739;28;20452;-79
2023/12/14 08:21:54;;;;;;;16.85;9.63;;;5.00;95.00;;;;;;5075182;28;20362;-83
2023/12/14 08:24:20;;;;;;;17.52;8.88;;;5.00;95.00;;;;;;5038323;28;20043;-79
2023/12/14 08:26:46;;;;;;;13.50;8.38;;;5.00;95.00;;;;;;5076648;28;20072;-78
2023/12/14 08:29:11;;;;;;;18.80;10.38;;;5.00;94.90;;;;;;5078159;28;20089;-80
2023/12/14 08:31:37;;;;;;;15.43;10.38;;;5.00;94.90;;;;;;5095642;28;20051;-80
2023/12/14 08:34:03;;;;;;;14.57;9.15;;;5.10;94.80;;;;;;5078507;28;20471;-80
2023/12/14 08:36:30;;;;;;;14.90;9.38;;;5.10;94.90;;;;;;5093606;28;20511;-80
2023/12/14 08:38:55;;;;;;;19.63;9.60;;;5.10;94.80;;;;;;5074756;28;20045;-81
2023/12/14 08:41:21;;;;;;;15.27;8.50;;;5.10;94.80;;;;;;5041091;28;20059;-78
2023/12/14 08:43:47;;;;;;;17.63;9.40;;;5.10;94.80;;;;;;5074737;28;20477;-82
2023/12/14 08:46:12;;;;;;;16.08;9.30;;;5.10;94.80;;;;;;5041265;28;20381;-80
2023/12/14 08:48:38;;;;;;;16.83;8.88;;;5.10;94.80;;;;;;5058295;28;20032;-78
2023/12/14 08:51:05;;;;;;;15.13;9.85;;;5.10;94.80;;;;;;5057747;28;20075;-80
2023/12/14 08:53:30;;;;;;;19.17;9.35;;;5.20;94.80;;;;;;5057853;28;20554;-81
2023/12/14 08:55:56;;;;;;;19.80;9.85;;;5.20;94.80;;;;;;5057708;28;20044;-82
2023/12/14 08:58:22;;;;;;;17.27;9.77;;;5.20;94.80;;;;;;5057969;28;20085;-81
2023/12/14 09:00:52;;;;;;;17.75;9.48;;;5.10;94.70;;;;;;5040984;28;20481;-80
2023/12/14 09:03:19;;;;;;;15.45;9.10;;;5.10;94.70;;;;;;5041735;28;20124;-78
2023/12/14 09:05:45;;;;;;;18.10;9.57;;;5.20;94.70;;;;;;5073937;28;20047;-81
2023/12/14 09:08:11;;;;;;;14.13;9.38;;;5.20;94.70;;;;;;5074279;28;20041;-79
2023/12/14 09:10:40;;;;;;;18.02;10.77;;;5.20;94.70;;;;;;5041007;28;20439;-80
2023/12/14 09:13:06;;;;;;;18.48;9.85;;;5.30;94.70;;;;;;5057455;28;20044;-80
2023/12/14 09:15:32;;;;;;;18.58;9.85;;;5.30;94.70;;;;;;5057007;28;20043;-81
2023/12/14 09:17:58;;;;;;;18.30;9.52;;;5.30;94.70;;;;;;5057167;28;20400;-80
2023/12/14 09:20:24;;;;;;;13.90;8.88;;;5.30;94.80;;;;;;5057399;28;20029;-81
2023/12/14 09:22:50;;;;;;;17.67;8.07;;;5.30;94.70;;;;;;5040517;28;20637;-81
2023/12/14 09:25:16;;;;;;;14.23;9.25;;;5.30;94.70;;;;;;5057337;28;20485;-81
2023/12/14 09:27:42;;;;;;;17.10;9.48;;;5.30;94.70;;;;;;5090193;28;20036;-79
2023/12/14 09:30:08;;;;;;;15.43;10.07;;;5.30;94.70;;;;;;5089036;28;20492;-79
2023/12/14 09:32:34;;;;;;;24.83;12.13;;;5.30;94.60;;;;;;5096356;28;20488;-81
2023/12/14 09:35:00;;;;;;;17.05;9.30;;;5.30;94.60;;;;;;5072102;28;20127;-81
2023/12/14 09:37:25;;;;;;;15.23;9.77;;;5.30;94.60;;;;;;5077019;28;20066;-79
2023/12/14 09:39:51;;;;;;;15.13;10.35;;;5.40;94.60;;;;;;5059968;28;20113;-80
2023/12/14 09:42:21;;;;;;;21.13;13.27;;;5.30;94.50;;;;;;5093665;28;20483;-80
2023/12/14 09:44:48;;;;;;;29.58;18.92;;;5.30;94.50;;;;;;5076356;28;20048;-80
2023/12/14 09:47:14;;;;;;;31.42;17.00;;;5.30;94.50;;;;;;5076609;28;20036;-81
2023/12/14 09:49:42;;;;;;;20.50;12.00;;;5.40;94.50;;;;;;5075804;28;20040;-81
2023/12/14 09:52:09;;;;;;;18.65;10.88;;;5.40;94.50;;;;;;5066716;28;20123;-83
2023/12/14 09:54:34;;;;;;;21.67;11.35;;;5.40;94.40;;;;;;5106556;28;20105;-80
2023/12/14 09:57:00;;;;;;;20.55;11.15;;;5.50;94.50;;;;;;5072643;28;20052;-81
2023/12/14 09:59:26;;;;;;;19.70;10.68;;;5.60;94.50;;;;;;5056150;28;20051;-82
2023/12/14 10:01:52;;;;;;;18.30;9.77;;;5.60;94.30;;;;;;5055698;28;20036;-81
2023/12/14 10:04:19;;;;;;;16.77;10.02;;;5.60;93.70;;;;;;5055737;28;20033;-84
2023/12/14 10:06:47;;;;;;;17.35;10.35;;;5.60;93.00;;;;;;5055865;28;20047;-79
2023/12/14 10:09:15;;;;;;;26.02;15.48;;;5.70;93.50;;;;;;5072423;28;20090;-81
2023/12/14 10:11:42;;;;;;;26.33;18.25;;;5.80;93.90;;;;;;5055971;28;20136;-79
2023/12/14 10:14:25;;;;;;;22.38;15.35;;;5.80;93.60;;;;;;5055187;28;20075;-80
2023/12/14 10:16:52;;;;;;;19.00;11.32;;;5.90;93.50;;;;;;5072374;28;20040;-84
2023/12/14 10:19:18;;;;;;;16.98;10.13;;;5.90;93.40;;;;;;5072229;28;20036;-78
2023/12/14 10:21:46;;;;;;;16.98;10.00;;;6.00;93.20;;;;;;5072256;28;20370;-81
2023/12/14 10:24:13;;;;;;;14.93;8.65;;;6.10;92.90;;;;;;5055238;28;20044;-78
2023/12/14 10:26:38;;;;;;;14.05;9.77;;;6.10;92.70;;;;;;5055731;28;20119;-80
2023/12/14 10:29:04;;;;;;;11.10;8.30;;;6.10;92.30;;;;;;5055653;28;20467;-79
2023/12/14 10:31:37;;;;;;;12.23;7.80;;;6.10;92.40;;;;;;5055251;28;20170;-79
2023/12/14 10:34:03;;;;;;;16.02;9.23;;;6.10;92.10;;;;;;5055787;28;20040;-81
2023/12/14 10:36:30;;;;;;;14.82;9.27;;;6.20;92.20;;;;;;5055388;28;20040;-81
2023/12/14 10:38:58;;;;;;;12.85;8.30;;;6.20;91.90;;;;;;5055506;28;20392;-82
2023/12/14 10:41:24;;;;;;;14.65;7.75;;;6.30;92.00;;;;;;5054949;28;20060;-82
2023/12/14 10:43:55;;;;;;;14.65;7.32;;;6.30;91.90;;;;;;5071814;28;20043;-82
2023/12/14 10:46:21;;;;;;;14.68;9.30;;;6.30;91.70;;;;;;5072143;28;20055;-80
2023/12/14 10:48:51;;;;;;;10.43;7.57;;;6.30;91.20;;;;;;5054869;28;20465;-80
2023/12/14 10:51:23;;;;;;;13.23;7.63;;;6.30;90.90;;;;;;5038906;28;20127;-81
2023/12/14 10:53:51;;;;;;;13.43;8.02;;;6.30;90.90;;;;;;5071730;28;20045;-81
2023/12/14 10:56:18;;;;;;;10.68;7.80;;;6.30;90.70;;;;;;5039158;28;20127;-82
2023/12/14 10:58:51;;;;;;;17.90;9.00;;;6.20;90.40;;;;;;5071665;28;20362;-80
2023/12/14 11:01:18;;;;;;;16.20;8.93;;;6.20;90.30;;;;;;5071618;28;20041;-80
2023/12/14 11:03:45;;;;;;;14.15;9.32;;;6.20;90.20;;;;;;5071626;28;20119;-79
2023/12/14 11:06:30;;;;;;;16.15;8.27;;;6.20;90.10;;;;;;5054962;28;20110;-84
2023/12/14 11:09:06;;;;;;;13.63;8.43;;;6.20;90.20;;;;;;5071335;28;20507;-80
2023/12/14 11:11:59;;;;;;;14.60;9.25;;;6.20;90.20;;;;;;5072052;28;20078;-81
2023/12/14 11:14:26;;;;;;;15.98;9.85;;;6.20;90.20;;;;;;5054939;28;20079;-83
2023/12/14 11:17:06;;;;;;;12.98;10.00;;;6.20;90.30;;;;;;5071712;28;20404;-80
2023/12/14 11:19:32;;;;;;;13.27;7.97;;;6.10;90.20;;;;;;5065968;28;20048;-79
2023/12/14 11:22:12;;;;;;;15.93;9.68;;;6.10;90.30;;;;;;5073802;28;20060;-81
2023/12/14 11:24:42;;;;;;;15.18;8.38;;;6.10;90.30;;;;;;5071428;28;20116;-81
2023/12/14 11:27:08;;;;;;;21.10;10.25;;;6.10;90.40;;;;;;5054697;28;20047;-80
2023/12/14 11:29:38;;;;;;;16.70;8.82;;;6.10;90.10;;;;;;5026724;28;20036;-79
2023/12/14 11:32:05;;;;;;;14.65;8.77;;;6.10;90.40;;;;;;5034776;28;20041;-81
2023/12/14 11:34:31;;;;;;;13.35;8.63;;;6.10;90.00;;;;;;5093500;28;20050;-78
2023/12/14 11:36:56;;;;;;;14.80;9.48;;;6.10;89.60;;;;;;5048181;28;20037;-80
2023/12/14 11:39:22;;;;;;;13.88;9.43;;;6.10;90.10;;;;;;5035829;28;20126;-82
2023/12/14 11:42:03;;;;;;;13.85;9.50;;;6.10;90.00;;;;;;5054433;28;20135;-81
2023/12/14 11:44:29;;;;;;;18.02;10.13;;;6.20;90.10;;;;;;5054481;28;20127;-81
2023/12/14 11:46:55;;;;;;;13.15;9.65;;;6.10;89.90;;;;;;5071491;28;20370;-81
2023/12/14 11:49:20;;;;;;;17.50;10.25;;;6.20;90.10;;;;;;5038212;28;20051;-81
2023/12/14 11:51:47;;;;;;;18.00;10.20;;;6.20;89.90;;;;;;5043518;28;20040;-80
2023/12/14 11:54:13;;;;;;;13.90;9.43;;;6.30;90.10;;;;;;5055558;28;20044;-81
2023/12/14 11:56:45;;;;;;;13.55;9.60;;;6.30;90.30;;;;;;5038412;28;20120;-81
2023/12/14 11:59:11;;;;;;;17.98;10.10;;;6.30;89.90;;;;;;5094389;28;20537;-81
2023/12/14 12:01:37;;;;;;;17.80;10.07;;;6.30;89.80;;;;;;5095454;28;20090;-81
2023/12/14 12:04:10;;;;;;;15.57;9.93;;;6.20;89.80;;;;;;5095144;28;20044;-81
2023/12/14 12:06:36;;;;;;;16.60;10.95;;;6.20;89.80;;;;;;5095452;28;20047;-78
2023/12/14 12:09:05;;;;;;;12.48;9.35;;;6.20;89.70;;;;;;5057006;28;20036;-82
2023/12/14 12:11:31;;;;;;;20.52;10.20;;;6.10;90.10;;;;;;5061366;28;20044;-82
2023/12/14 12:13:57;;;;;;;19.63;10.05;;;6.10;90.20;;;;;;5040562;28;20134;-82
2023/12/14 12:16:23;;;;;;;17.00;10.43;;;6.10;90.40;;;;;;5058242;28;20044;-80
2023/12/14 12:18:50;;;;;;;18.55;10.00;;;6.10;90.40;;;;;;5057934;28;20301;-83
2023/12/14 12:21:16;;;;;;;18.58;9.60;;;6.10;90.60;;;;;;5057487;28;20049;-82
2023/12/14 12:23:42;;;;;;;15.88;10.77;;;6.10;90.60;;;;;;5057878;28;20128;-79
2023/12/14 12:26:08;;;;;;;15.98;9.80;;;6.10;90.80;;;;;;5058049;28;20032;-80
2023/12/14 12:28:33;;;;;;;22.23;10.35;;;6.20;90.80;;;;;;5074460;28;20131;-81
2023/12/14 12:31:00;;;;;;;14.77;9.50;;;6.20;90.70;;;;;;5074519;28;20119;-82
2023/12/14 12:33:26;;;;;;;12.82;8.82;;;6.10;90.10;;;;;;5057907;28;20040;-80
2023/12/14 12:35:52;;;;;;;28.92;16.55;;;6.10;90.60;;;;;;5057573;28;20045;-80
2023/12/14 12:38:20;;;;;;;16.55;9.05;;;6.10;90.30;;;;;;5057473;28;20048;-81
2023/12/14 12:40:46;;;;;;;14.80;9.07;;;6.10;90.60;;;;;;5073938;28;20409;-78
2023/12/14 12:43:14;;;;;;;14.52;8.20;;;6.10;90.20;;;;;;5040929;28;20040;-81
2023/12/14 12:45:39;;;;;;;15.48;10.45;;;6.10;90.20;;;;;;5040996;28;20040;-79
2023/12/14 12:48:06;;;;;;;13.43;8.93;;;6.30;90.20;;;;;;5057529;28;20044;-80
2023/12/14 12:50:33;;;;;;;11.40;8.40;;;6.40;90.20;;;;;;5073940;28;20048;-80
2023/12/14 12:52:58;;;;;;;14.27;7.97;;;6.40;89.30;;;;;;5057212;28;20049;-82
2023/12/14 12:55:24;;;;;;;14.18;8.43;;;6.40;89.90;;;;;;5073968;28;20070;-79
2023/12/14 12:57:50;;;;;;;14.93;8.25;;;6.40;89.70;;;;;;5057244;28;20052;-83
2023/12/14 13:00:16;;;;;;;15.68;9.70;;;6.30;89.60;;;;;;5040559;28;20440;-80
2023/12/14 13:02:43;;;;;;;16.17;9.27;;;6.30;89.50;;;;;;5040590;28;20040;-82